Weather at Myrini - Karditsa Airport

Public forecast

Using degrees Celsius for public forecast. Weather courtesy of forecast.io.

Closest aviation weather report (METAR) to Myrini - Karditsa Airport

Closest report is Larisa Air Base, 26.2 nm (48.5 km) NE. Retrieved 2022/01/17 15:50 UTC (26 minutes ago):

LGLR 171550Z 00000KT 9999 SCT080 08/01 Q1019 BLU

Closest aviation forecast (TAF) to Myrini - Karditsa Airport

Closest forecast is Aktion National Airport, 64.2 nm (118.9 km) WSW. Retrieved 2022/01/17 12:12 UTC (4 hours ago):

TAF LGPZ 171100Z 1712/1812 VRB03KT 9999 FEW020 SCT070 PROB30 TEMPO 1715/1721 5000 RA FEW010 BKN030 BKN080 BECMG 1716/1718 30012KT TEMPO 1720/1724 30013G23KT